createdAt,value
2022-11-01T00:01:54.829Z,67.49
2022-11-01T00:04:22.820Z,67.60
2022-11-01T00:06:51.444Z,67.64
2022-11-01T00:09:19.637Z,67.19
2022-11-01T00:11:49.304Z,67.56
2022-11-01T00:14:19.549Z,67.28
2022-11-01T00:16:47.440Z,67.11
2022-11-01T00:19:15.598Z,67.11
2022-11-01T00:21:43.784Z,67.04
2022-11-01T00:24:11.848Z,67.13
2022-11-01T00:26:39.918Z,66.78
2022-11-01T00:29:09.199Z,66.65
2022-11-01T00:31:38.177Z,66.88
2022-11-01T00:34:06.861Z,66.74
2022-11-01T00:36:34.878Z,66.67
2022-11-01T00:39:03.359Z,67.08
2022-11-01T00:41:31.363Z,66.39
2022-11-01T00:44:02.198Z,66.86
2022-11-01T00:46:31.737Z,66.94
2022-11-01T00:48:59.861Z,66.52
2022-11-01T00:51:28.827Z,66.53
2022-11-01T00:53:56.910Z,66.53
2022-11-01T00:56:24.780Z,66.17
2022-11-01T00:58:52.839Z,66.28
2022-11-01T01:01:20.890Z,65.79
2022-11-01T01:03:50.339Z,66.00
2022-11-01T01:06:18.243Z,65.36
2022-11-01T01:08:46.367Z,65.74
2022-11-01T01:11:16.280Z,65.73
2022-11-01T01:13:46.786Z,66.01
2022-11-01T01:16:14.866Z,65.77
2022-11-01T01:18:42.759Z,65.48
2022-11-01T01:21:13.983Z,65.74
2022-11-01T01:23:43.398Z,65.49
2022-11-01T01:26:12.780Z,65.77
2022-11-01T01:28:43.669Z,65.63
2022-11-01T01:31:14.103Z,66.09
2022-11-01T01:33:42.726Z,65.73
2022-11-01T01:36:12.476Z,65.92
2022-11-01T01:38:40.403Z,65.69
2022-11-01T01:41:25.819Z,65.85
2022-11-01T01:43:54.338Z,65.72
2022-11-01T01:46:22.729Z,65.72
2022-11-01T01:48:55.937Z,65.73
2022-11-01T01:51:28.423Z,65.46
2022-11-01T01:53:58.217Z,65.18
2022-11-01T01:56:32.188Z,65.46
2022-11-01T01:59:04.246Z,65.50
2022-11-01T02:01:33.532Z,65.61
2022-11-01T02:04:02.126Z,65.57
2022-11-01T02:06:33.736Z,65.50
2022-11-01T02:09:04.463Z,65.92
2022-11-01T02:11:32.337Z,65.57
2022-11-01T02:14:00.536Z,65.67
2022-11-01T02:16:51.643Z,65.82
2022-11-01T02:19:43.151Z,65.57
2022-11-01T02:22:18.277Z,65.48
2022-11-01T02:25:03.385Z,65.55
2022-11-01T02:27:42.596Z,65.70
2022-11-01T02:30:15.770Z,65.75
2022-11-01T02:33:05.678Z,65.90
2022-11-01T02:35:48.899Z,66.02
2022-11-01T02:38:24.998Z,65.61
2022-11-01T02:41:01.001Z,65.55
2022-11-01T02:43:43.525Z,65.33
2022-11-01T02:46:29.681Z,65.39
2022-11-01T02:48:59.224Z,65.57
2022-11-01T02:51:29.144Z,65.58
2022-11-01T02:53:57.064Z,65.89
2022-11-01T02:56:24.992Z,66.00
2022-11-01T02:58:53.810Z,65.98
2022-11-01T03:01:26.115Z,66.08
2022-11-01T03:03:57.653Z,65.70
2022-11-01T03:06:35.051Z,66.10
2022-11-01T03:09:07.091Z,65.79
2022-11-01T03:11:43.598Z,65.85
2022-11-01T03:14:19.784Z,65.75
2022-11-01T03:16:55.499Z,65.40
2022-11-01T03:19:33.836Z,65.76
2022-11-01T03:22:08.146Z,65.46
2022-11-01T03:24:45.103Z,65.21
2022-11-01T03:27:18.046Z,64.89
2022-11-01T03:29:49.508Z,65.17
2022-11-01T03:32:20.863Z,64.79
2022-11-01T03:34:49.073Z,65.22
2022-11-01T03:37:20.300Z,65.36
2022-11-01T03:39:52.967Z,64.77
2022-11-01T03:42:24.870Z,64.73
2022-11-01T03:44:59.113Z,65.13
2022-11-01T03:47:28.190Z,65.29
2022-11-01T03:50:16.233Z,65.89
2022-11-01T03:52:46.203Z,65.38
2022-11-01T03:55:20.773Z,65.24
2022-11-01T03:57:50.457Z,65.61
2022-11-01T04:00:21.010Z,65.97
2022-11-01T04:02:49.650Z,65.80
2022-11-01T04:05:18.086Z,65.61
2022-11-01T04:07:47.911Z,65.73
2022-11-01T04:10:16.741Z,65.84
2022-11-01T04:12:46.546Z,65.66
2022-11-01T04:15:32.660Z,66.07
2022-11-01T04:18:22.740Z,66.50
2022-11-01T04:20:51.270Z,66.79
2022-11-01T04:23:21.079Z,66.78
2022-11-01T04:25:48.983Z,66.91
2022-11-01T04:28:17.383Z,67.30
2022-11-01T04:30:45.377Z,67.72
2022-11-01T04:33:13.223Z,67.33
2022-11-01T04:35:42.479Z,67.82
2022-11-01T04:38:11.594Z,67.72
2022-11-01T04:40:41.039Z,67.99
2022-11-01T04:43:09.209Z,68.21
2022-11-01T04:45:37.148Z,68.27
2022-11-01T04:48:07.608Z,69.05
2022-11-01T04:50:36.695Z,69.34
2022-11-01T04:53:05.086Z,69.27
2022-11-01T04:55:33.253Z,69.12
2022-11-01T04:58:03.136Z,69.78
2022-11-01T05:00:32.091Z,70.07
2022-11-01T05:03:05.199Z,70.67
2022-11-01T05:05:33.798Z,71.36
2022-11-01T05:08:02.925Z,71.32
2022-11-01T05:10:31.887Z,70.82
2022-11-01T05:13:00.643Z,71.64
2022-11-01T05:15:30.409Z,71.42
2022-11-01T05:17:58.529Z,71.02
2022-11-01T05:20:26.561Z,70.46
2022-11-01T05:22:59.266Z,70.90
2022-11-01T05:25:27.578Z,70.40
2022-11-01T05:28:01.152Z,70.60
2022-11-01T05:30:30.782Z,70.64
2022-11-01T05:33:00.348Z,70.48
2022-11-01T05:35:30.020Z,70.59
2022-11-01T05:37:58.308Z,70.46
2022-11-01T05:40:26.643Z,69.99
2022-11-01T05:42:54.631Z,70.17
2022-11-01T05:45:22.799Z,70.17
2022-11-01T05:47:52.147Z,70.24
2022-11-01T05:50:20.021Z,69.32
2022-11-01T05:52:48.465Z,68.54
2022-11-01T05:55:16.584Z,67.74
2022-11-01T05:57:44.506Z,66.51
2022-11-01T06:00:13.635Z,65.32
2022-11-01T06:02:41.778Z,64.43
2022-11-01T06:05:11.441Z,64.49
2022-11-01T06:07:39.289Z,64.30
2022-11-01T06:10:08.371Z,63.46
2022-11-01T06:12:36.378Z,63.33
2022-11-01T06:15:04.896Z,63.50
2022-11-01T06:17:32.794Z,62.76
2022-11-01T06:20:00.714Z,63.04
2022-11-01T06:22:29.900Z,62.99
2022-11-01T06:24:57.791Z,62.92
2022-11-01T06:27:25.649Z,62.58
2022-11-01T06:29:53.512Z,62.33
2022-11-01T06:32:21.392Z,61.85
2022-11-01T06:34:49.353Z,62.00
2022-11-01T06:37:17.392Z,62.09
2022-11-01T06:39:46.963Z,62.09
2022-11-01T06:42:14.930Z,62.16
2022-11-01T06:44:42.911Z,61.52
2022-11-01T06:47:12.833Z,61.34
2022-11-01T06:49:40.808Z,60.66
2022-11-01T06:52:09.713Z,59.73
2022-11-01T06:54:37.676Z,59.27
2022-11-01T06:57:07.035Z,58.92
2022-11-01T06:59:35.014Z,58.38
2022-11-01T07:02:03.037Z,58.10
2022-11-01T07:04:31.909Z,57.68
2022-11-01T07:06:59.897Z,57.66
2022-11-01T07:09:28.174Z,57.14
2022-11-01T07:11:56.128Z,56.92
2022-11-01T07:14:25.395Z,56.39
2022-11-01T07:16:53.235Z,56.22
2022-11-01T07:19:22.485Z,55.51
2022-11-01T07:21:50.752Z,55.66
2022-11-01T07:24:18.866Z,55.45
2022-11-01T07:26:46.987Z,55.61
2022-11-01T07:29:14.988Z,55.45
2022-11-01T07:31:44.329Z,54.80
2022-11-01T07:34:12.323Z,54.71
2022-11-01T07:36:40.804Z,54.64
2022-11-01T07:39:08.811Z,54.43
2022-11-01T07:41:36.673Z,54.33
2022-11-01T07:44:04.895Z,53.90
2022-11-01T07:46:32.835Z,53.98
2022-11-01T07:49:02.133Z,53.67
2022-11-01T07:51:30.487Z,54.32
2022-11-01T07:53:58.299Z,54.30
2022-11-01T07:56:26.304Z,54.21
2022-11-01T07:58:54.153Z,54.53
2022-11-01T08:01:22.214Z,54.81
2022-11-01T08:03:50.390Z,54.50
2022-11-01T08:06:19.699Z,54.69
2022-11-01T08:08:47.539Z,54.80
2022-11-01T08:11:15.494Z,55.05
2022-11-01T08:13:43.394Z,55.19
2022-11-01T08:16:11.325Z,54.90
2022-11-01T08:18:39.295Z,56.45
2022-11-01T08:21:07.303Z,56.54
2022-11-01T08:23:36.818Z,56.28
2022-11-01T08:26:06.304Z,56.29
2022-11-01T08:28:34.192Z,56.93
2022-11-01T08:31:07.070Z,56.80
2022-11-01T08:33:34.990Z,57.01
2022-11-01T08:36:03.134Z,56.43
2022-11-01T08:38:30.993Z,56.82
2022-11-01T08:41:01.019Z,56.76
2022-11-01T08:43:28.979Z,56.53
2022-11-01T08:45:59.444Z,56.71
2022-11-01T08:48:27.327Z,56.49
2022-11-01T08:50:55.223Z,56.36
2022-11-01T08:53:24.897Z,55.79
2022-11-01T08:55:55.744Z,56.02
2022-11-01T08:58:25.105Z,56.29
2022-11-01T09:00:53.087Z,55.96
2022-11-01T09:03:21.013Z,55.22
2022-11-01T09:05:49.096Z,55.48
2022-11-01T09:08:17.097Z,56.02
2022-11-01T09:10:45.067Z,56.01
2022-11-01T09:13:12.999Z,55.97
2022-11-01T09:15:42.348Z,55.92
2022-11-01T09:18:10.535Z,55.74
2022-11-01T09:20:38.774Z,55.64
2022-11-01T09:23:06.846Z,56.09
2022-11-01T09:25:34.807Z,55.69
2022-11-01T09:28:02.729Z,55.49
2022-11-01T09:30:31.013Z,55.91
2022-11-01T09:33:05.708Z,55.54
2022-11-01T09:35:33.897Z,55.51
2022-11-01T09:38:03.871Z,55.96
2022-11-01T09:40:40.929Z,56.03
2022-11-01T09:43:12.384Z,56.38
2022-11-01T09:45:40.431Z,56.01
2022-11-01T09:48:13.150Z,55.70
2022-11-01T09:50:43.860Z,55.85
2022-11-01T09:53:18.691Z,56.01
2022-11-01T09:55:52.218Z,56.09
2022-11-01T09:58:30.131Z,56.87
2022-11-01T10:01:11.583Z,57.16
2022-11-01T10:03:52.969Z,57.29
2022-11-01T10:06:25.012Z,57.29
2022-11-01T10:09:05.855Z,57.31
2022-11-01T10:11:46.146Z,56.94
2022-11-01T10:14:29.117Z,56.43
2022-11-01T10:17:07.770Z,56.66
2022-11-01T10:19:38.399Z,57.38
2022-11-01T10:22:13.162Z,58.05
2022-11-01T10:24:45.311Z,58.12
2022-11-01T10:27:19.752Z,57.96
2022-11-01T10:29:55.908Z,57.63
2022-11-01T10:32:30.857Z,57.94
2022-11-01T10:35:05.263Z,58.38
2022-11-01T10:37:43.736Z,58.59
2022-11-01T10:40:24.712Z,58.84
2022-11-01T10:42:52.671Z,58.42
2022-11-01T10:45:23.162Z,58.26
2022-11-01T10:47:55.955Z,59.02
2022-11-01T10:50:27.419Z,59.39
2022-11-01T10:53:00.861Z,58.76
2022-11-01T10:55:35.574Z,58.61
2022-11-01T10:58:07.457Z,58.76
2022-11-01T11:00:38.253Z,58.71
2022-11-01T11:03:22.322Z,59.27
2022-11-01T11:05:53.162Z,59.17
2022-11-01T11:08:24.752Z,59.52
2022-11-01T11:10:53.028Z,60.14
2022-11-01T11:13:23.711Z,60.13
2022-11-01T11:15:53.679Z,60.06
2022-11-01T11:18:26.213Z,60.16
2022-11-01T11:21:00.070Z,59.92
2022-11-01T11:23:29.612Z,60.55
2022-11-01T11:26:02.908Z,60.64
2022-11-01T11:28:33.594Z,59.99
2022-11-01T11:31:13.767Z,60.51
2022-11-01T11:33:50.179Z,60.70
2022-11-01T11:36:27.472Z,60.56
2022-11-01T11:38:56.349Z,60.20
2022-11-01T11:41:30.205Z,60.03
2022-11-01T11:43:58.342Z,60.90
2022-11-01T11:46:26.211Z,60.25
2022-11-01T11:48:56.950Z,60.00
2022-11-01T11:51:28.850Z,59.85
2022-11-01T11:54:26.360Z,59.26
2022-11-01T11:57:11.139Z,59.60
2022-11-01T11:59:40.785Z,59.38
2022-11-01T12:02:19.877Z,59.17
2022-11-01T12:04:52.751Z,58.68
2022-11-01T12:07:30.592Z,58.00
2022-11-01T12:10:02.146Z,58.20
2022-11-01T12:12:32.476Z,57.82
2022-11-01T12:15:02.041Z,58.29
2022-11-01T12:17:33.733Z,59.11
2022-11-01T12:20:16.818Z,58.16
2022-11-01T12:22:50.212Z,57.85
2022-11-01T12:25:22.683Z,57.48
2022-11-01T12:27:58.747Z,58.36
2022-11-01T12:30:29.484Z,58.09
2022-11-01T12:32:59.730Z,58.06
2022-11-01T12:35:31.911Z,58.37
2022-11-01T12:38:13.660Z,58.76
2022-11-01T12:40:44.678Z,58.20
2022-11-01T12:43:17.499Z,57.83
2022-11-01T12:45:51.293Z,57.93
2022-11-01T12:48:25.878Z,57.90
2022-11-01T12:50:59.390Z,57.83
2022-11-01T12:53:34.343Z,57.12
2022-11-01T12:56:02.336Z,56.76
2022-11-01T12:58:33.796Z,56.74
2022-11-01T13:01:27.030Z,56.88
2022-11-01T13:04:08.882Z,56.26
2022-11-01T13:06:56.155Z,56.39
2022-11-01T13:09:32.095Z,56.03
2022-11-01T13:12:05.990Z,56.14
2022-11-01T13:14:45.757Z,56.04
2022-11-01T13:17:22.076Z,55.80
2022-11-01T13:20:00.424Z,55.31
2022-11-01T13:22:36.415Z,55.00
2022-11-01T13:25:14.063Z,54.90
2022-11-01T13:27:47.958Z,54.93
2022-11-01T13:30:19.622Z,55.00
2022-11-01T13:32:54.057Z,54.12
2022-11-01T13:35:45.808Z,53.97
2022-11-01T13:38:25.781Z,53.36
2022-11-01T13:41:06.104Z,54.15
2022-11-01T13:43:39.147Z,54.43
2022-11-01T13:46:43.741Z,53.76
2022-11-01T13:49:54.293Z,54.11
2022-11-01T13:52:28.789Z,54.32
2022-11-01T13:55:02.567Z,54.13
2022-11-01T13:57:32.777Z,54.00
2022-11-01T14:00:02.151Z,53.60
2022-11-01T14:02:58.011Z,53.35
2022-11-01T14:05:38.434Z,52.92
2022-11-01T14:08:28.858Z,52.97
2022-11-01T14:10:57.352Z,53.07
2022-11-01T14:13:35.966Z,52.41
2022-11-01T14:16:20.550Z,52.47
2022-11-01T14:19:20.454Z,51.79
2022-11-01T14:21:53.415Z,51.72
2022-11-01T14:24:32.163Z,51.84
2022-11-01T14:27:13.783Z,51.46
2022-11-01T14:29:43.148Z,51.51
2022-11-01T14:32:12.375Z,51.91
2022-11-01T14:34:42.698Z,51.18
2022-11-01T14:37:20.277Z,51.60
2022-11-01T14:39:57.228Z,50.73
2022-11-01T14:42:31.287Z,51.03
2022-11-01T14:45:03.691Z,50.82
2022-11-01T14:47:39.689Z,51.03
2022-11-01T14:50:17.104Z,50.67
2022-11-01T14:52:50.238Z,50.48
2022-11-01T14:55:23.357Z,50.90
2022-11-01T14:57:51.859Z,51.18
2022-11-01T15:00:28.497Z,50.86
2022-11-01T15:05:28.562Z,51.20
2022-11-01T15:07:59.229Z,51.32
2022-11-01T15:10:27.758Z,51.31
2022-11-01T15:12:59.276Z,51.89
2022-11-01T15:15:32.409Z,52.14
2022-11-01T15:18:04.827Z,52.05
2022-11-01T15:20:37.749Z,51.87
2022-11-01T15:23:11.042Z,51.77
2022-11-01T15:25:40.716Z,51.67
2022-11-01T15:28:08.850Z,52.13
2022-11-01T15:30:38.324Z,52.59
2022-11-01T15:33:17.658Z,53.10
2022-11-01T15:35:55.276Z,53.13
2022-11-01T15:38:24.124Z,53.94
2022-11-01T15:40:53.127Z,53.82
2022-11-01T15:43:22.907Z,53.83
2022-11-01T15:45:56.138Z,53.74
2022-11-01T15:48:28.307Z,53.50
2022-11-01T15:51:00.696Z,53.90
2022-11-01T15:53:33.459Z,53.79
2022-11-01T15:56:06.417Z,54.20
2022-11-01T15:58:39.139Z,54.43
2022-11-01T16:01:15.781Z,54.60
2022-11-01T16:03:48.523Z,54.21
2022-11-01T16:06:21.731Z,54.39
2022-11-01T16:08:55.747Z,54.82
2022-11-01T16:11:26.373Z,54.70
2022-11-01T16:14:00.531Z,54.90
2022-11-01T16:16:29.896Z,55.34
2022-11-01T16:18:57.767Z,55.37
2022-11-01T16:21:29.997Z,54.84
2022-11-01T16:24:05.308Z,55.34
2022-11-01T16:26:53.118Z,55.60
2022-11-01T16:29:38.852Z,55.50
2022-11-01T16:32:10.316Z,55.32
2022-11-01T16:34:38.612Z,55.40
2022-11-01T16:37:19.477Z,55.13
2022-11-01T16:39:48.143Z,54.95
2022-11-01T16:42:17.282Z,55.52
2022-11-01T16:44:46.115Z,55.34
2022-11-01T16:47:17.340Z,55.94
2022-11-01T16:49:50.432Z,56.20
2022-11-01T16:52:18.539Z,55.84
2022-11-01T16:54:49.493Z,56.22
2022-11-01T16:57:23.346Z,56.01
2022-11-01T16:59:52.327Z,55.89
2022-11-01T17:02:24.473Z,55.97
2022-11-01T17:04:56.411Z,55.80
2022-11-01T17:07:24.356Z,55.89
2022-11-01T17:09:52.264Z,56.51
2022-11-01T17:12:21.760Z,55.81
2022-11-01T17:14:50.973Z,56.04
2022-11-01T17:17:24.588Z,55.92
2022-11-01T17:19:59.716Z,56.18
2022-11-01T17:22:36.929Z,56.08
2022-11-01T17:27:59.881Z,56.42
2022-11-01T17:30:28.402Z,55.59
2022-11-01T17:32:56.709Z,55.86
2022-11-01T17:35:26.876Z,55.42
2022-11-01T17:37:55.887Z,55.58
2022-11-01T17:40:25.831Z,55.42
2022-11-01T17:42:54.449Z,55.26
2022-11-01T17:45:23.503Z,55.69
2022-11-01T17:47:56.107Z,55.87
2022-11-01T17:50:24.488Z,55.37
2022-11-01T17:52:54.449Z,56.12
2022-11-01T17:55:22.518Z,56.46
2022-11-01T17:57:50.632Z,56.12
2022-11-01T18:00:20.181Z,56.44
2022-11-01T18:02:48.984Z,56.12
2022-11-01T18:05:17.064Z,56.24
2022-11-01T18:07:48.650Z,55.62
2022-11-01T18:10:19.884Z,55.99
2022-11-01T18:13:15.898Z,55.59
2022-11-01T18:15:53.287Z,55.89
2022-11-01T18:18:30.296Z,56.57
2022-11-01T18:21:16.975Z,56.29
2022-11-01T18:23:46.972Z,56.25
2022-11-01T18:26:21.092Z,56.38
2022-11-01T18:28:48.992Z,55.92
2022-11-01T18:31:23.603Z,55.48
2022-11-01T18:33:59.538Z,56.69
2022-11-01T18:36:32.154Z,56.19
2022-11-01T18:39:07.233Z,56.37
2022-11-01T18:41:36.724Z,55.97
2022-11-01T18:44:11.936Z,56.26
2022-11-01T18:46:48.880Z,56.05
2022-11-01T18:49:16.816Z,56.12
2022-11-01T18:51:46.477Z,56.02
2022-11-01T18:54:29.208Z,55.86
2022-11-01T18:57:00.516Z,56.28
2022-11-01T18:59:34.679Z,56.51
2022-11-01T19:02:12.256Z,56.59
2022-11-01T19:04:44.485Z,56.52
2022-11-01T19:07:14.547Z,56.52
2022-11-01T19:09:44.665Z,56.83
2022-11-01T19:12:16.663Z,56.39
2022-11-01T19:14:47.614Z,56.91
2022-11-01T19:17:21.076Z,57.14
2022-11-01T19:19:50.533Z,57.01
2022-11-01T19:22:32.459Z,57.15
2022-11-01T19:25:01.478Z,56.93
2022-11-01T19:27:31.424Z,57.03
2022-11-01T19:30:00.465Z,57.53
2022-11-01T19:32:28.740Z,56.85
2022-11-01T19:34:57.031Z,56.55
2022-11-01T19:37:31.597Z,56.97
2022-11-01T19:40:02.890Z,57.16
2022-11-01T19:42:33.171Z,56.76
2022-11-01T19:45:11.677Z,56.50
2022-11-01T19:47:41.439Z,57.44
2022-11-01T19:50:21.351Z,57.73
2022-11-01T19:52:51.959Z,57.19
2022-11-01T19:55:37.734Z,57.30
2022-11-01T19:58:25.951Z,57.06
2022-11-01T20:01:13.596Z,57.17
2022-11-01T20:03:44.231Z,56.96
2022-11-01T20:06:17.496Z,56.69
2022-11-01T20:08:46.246Z,56.43
2022-11-01T20:11:14.212Z,56.09
2022-11-01T20:13:43.582Z,56.61
2022-11-01T20:16:11.492Z,56.67
2022-11-01T20:18:39.369Z,56.93
2022-11-01T20:21:07.267Z,56.75
2022-11-01T20:23:35.920Z,56.47
2022-11-01T20:26:04.849Z,56.56
2022-11-01T20:28:33.460Z,56.60
2022-11-01T20:31:04.575Z,56.52
2022-11-01T20:33:32.917Z,56.17
2022-11-01T20:36:00.990Z,55.96
2022-11-01T20:38:28.888Z,55.86
2022-11-01T20:40:56.983Z,55.59
2022-11-01T20:43:25.099Z,55.06
2022-11-01T20:45:53.148Z,54.97
2022-11-01T20:48:22.354Z,55.13
2022-11-01T20:50:50.290Z,54.85
2022-11-01T20:53:18.560Z,54.57
2022-11-01T20:55:46.603Z,54.87
2022-11-01T20:58:15.183Z,54.96
2022-11-01T21:00:43.104Z,54.75
2022-11-01T21:03:16.166Z,55.10
2022-11-01T21:05:47.076Z,55.66
2022-11-01T21:08:24.528Z,56.44
2022-11-01T21:10:55.697Z,56.39
2022-11-01T21:13:26.369Z,56.79
2022-11-01T21:15:56.033Z,56.55
2022-11-01T21:18:39.889Z,56.46
2022-11-01T21:21:31.670Z,56.55
2022-11-01T21:24:16.424Z,56.72
2022-11-01T21:26:45.492Z,56.73
2022-11-01T21:29:20.688Z,56.70
2022-11-01T21:31:48.598Z,56.55
2022-11-01T21:34:25.835Z,57.13
2022-11-01T21:36:53.947Z,57.08
2022-11-01T21:39:26.882Z,57.25
2022-11-01T21:41:57.769Z,57.10
2022-11-01T21:44:29.366Z,56.72
2022-11-01T21:46:59.526Z,57.95
2022-11-01T21:49:30.315Z,57.58
2022-11-01T21:52:00.517Z,57.42
2022-11-01T21:54:31.359Z,57.34
2022-11-01T21:56:59.362Z,57.15
2022-11-01T21:59:28.696Z,57.50
2022-11-01T22:01:57.979Z,57.55
2022-11-01T22:04:28.682Z,57.62
2022-11-01T22:06:56.939Z,57.66
2022-11-01T22:09:25.339Z,57.89
2022-11-01T22:11:54.954Z,57.92
2022-11-01T22:14:22.824Z,57.79
2022-11-01T22:16:50.724Z,57.56
2022-11-01T22:19:18.881Z,58.02
2022-11-01T22:21:47.087Z,58.16
2022-11-01T22:24:15.162Z,58.08
2022-11-01T22:26:43.216Z,58.28
2022-11-01T22:29:12.425Z,58.13
2022-11-01T22:31:40.314Z,58.29
2022-11-01T22:34:08.133Z,59.09
2022-11-01T22:36:37.428Z,59.19
2022-11-01T22:39:15.334Z,59.57
2022-11-01T22:41:43.429Z,59.77
2022-11-01T22:44:14.759Z,59.75
2022-11-01T22:46:52.331Z,59.30
2022-11-01T22:49:27.365Z,60.41
2022-11-01T22:51:58.659Z,60.62
2022-11-01T22:54:39.914Z,60.74
2022-11-01T22:57:15.963Z,60.92
2022-11-01T22:59:47.387Z,60.20
2022-11-01T23:02:26.860Z,60.37
2022-11-01T23:05:20.563Z,60.23
2022-11-01T23:07:50.313Z,60.67
2022-11-01T23:10:24.980Z,61.42
2022-11-01T23:13:16.495Z,61.48
2022-11-01T23:15:45.999Z,61.98
2022-11-01T23:18:19.093Z,61.34
2022-11-01T23:20:54.028Z,61.69
2022-11-01T23:23:22.378Z,61.54
2022-11-01T23:25:50.723Z,62.05
2022-11-01T23:28:19.106Z,61.93
2022-11-01T23:30:49.511Z,61.53
2022-11-01T23:33:20.210Z,61.21
2022-11-01T23:35:52.028Z,61.52
2022-11-01T23:38:22.765Z,61.79
2022-11-01T23:40:52.848Z,62.15
2022-11-01T23:43:27.911Z,61.66
2022-11-01T23:45:57.418Z,61.82
2022-11-01T23:48:25.522Z,62.91
2022-11-01T23:50:54.199Z,63.95
2022-11-01T23:53:28.115Z,64.12
2022-11-01T23:55:56.109Z,64.97
